createdAt,value
2022-10-01T00:04:09.258Z,8.11
2022-10-01T00:09:12.037Z,7.94
2022-10-01T00:14:14.862Z,7.85
2022-10-01T00:19:19.010Z,7.81
2022-10-01T00:24:21.801Z,7.70
2022-10-01T00:29:24.586Z,7.68
2022-10-01T00:34:28.737Z,7.48
2022-10-01T00:39:31.562Z,7.51
2022-10-01T00:44:36.775Z,7.63
2022-10-01T00:49:41.973Z,7.60
2022-10-01T00:54:49.285Z,7.63
2022-10-01T00:59:54.148Z,7.57
2022-10-01T01:04:59.230Z,7.35
2022-10-01T01:10:03.049Z,7.31
2022-10-01T01:15:16.173Z,7.32
2022-10-01T01:20:51.787Z,7.26
2022-10-01T01:26:03.516Z,7.12
2022-10-01T01:31:14.412Z,7.01
2022-10-01T01:36:22.599Z,7.08
2022-10-01T01:41:29.367Z,7.17
2022-10-01T01:46:36.930Z,7.17
2022-10-01T01:51:46.829Z,7.15
2022-10-01T01:56:51.330Z,7.14
2022-10-01T02:01:55.625Z,6.93
2022-10-01T02:07:16.196Z,6.95
2022-10-01T02:12:30.278Z,6.96
2022-10-01T02:17:45.999Z,7.05
2022-10-01T02:22:53.878Z,7.13
2022-10-01T02:28:01.034Z,7.18
2022-10-01T02:33:08.170Z,7.24
2022-10-01T02:38:12.071Z,7.28
2022-10-01T02:43:18.949Z,7.34
2022-10-01T02:48:23.319Z,7.39
2022-10-01T02:53:33.214Z,7.41
2022-10-01T02:58:36.362Z,7.43
2022-10-01T03:03:43.063Z,7.38
2022-10-01T03:08:45.939Z,7.44
2022-10-01T03:13:48.748Z,7.52
2022-10-01T03:18:52.929Z,7.55
2022-10-01T03:23:55.720Z,7.55
2022-10-01T03:28:58.556Z,7.58
2022-10-01T03:34:02.775Z,7.54
2022-10-01T03:39:05.609Z,7.52
2022-10-01T03:44:08.423Z,7.59
2022-10-01T03:49:12.652Z,7.68
2022-10-01T03:54:15.627Z,7.73
2022-10-01T03:59:19.390Z,7.78
2022-10-01T04:04:23.565Z,7.87
2022-10-01T04:09:26.385Z,7.92
2022-10-01T04:14:29.182Z,7.99
2022-10-01T04:19:33.394Z,8.04
2022-10-01T04:24:36.194Z,8.12
2022-10-01T04:29:40.393Z,8.18
2022-10-01T04:34:53.421Z,8.20
2022-10-01T04:39:56.359Z,8.20
2022-10-01T04:44:59.142Z,8.16
2022-10-01T04:50:03.235Z,8.14
2022-10-01T04:55:06.750Z,8.15
2022-10-01T05:00:12.086Z,8.18
2022-10-01T05:05:17.949Z,8.22
2022-10-01T05:10:22.881Z,8.30
2022-10-01T05:15:25.709Z,8.29
2022-10-01T05:20:30.166Z,8.32
2022-10-01T05:25:33.107Z,8.31
2022-10-01T05:30:35.903Z,8.32
2022-10-01T05:35:42.441Z,8.35
2022-10-01T05:40:47.409Z,8.42
2022-10-01T05:45:51.234Z,8.49
2022-10-01T05:50:55.805Z,8.52
2022-10-01T05:56:03.062Z,8.53
2022-10-01T06:01:05.918Z,8.58
2022-10-01T06:06:10.149Z,8.61
2022-10-01T06:11:12.833Z,8.63
2022-10-01T06:16:16.476Z,8.70
2022-10-01T06:21:20.824Z,8.78
2022-10-01T06:26:24.353Z,8.86
2022-10-01T06:31:27.629Z,8.85
2022-10-01T06:36:31.738Z,8.83
2022-10-01T06:41:35.087Z,8.80
2022-10-01T06:46:38.007Z,8.80
2022-10-01T06:51:59.393Z,8.79
2022-10-01T06:57:02.128Z,8.83
2022-10-01T07:02:05.005Z,8.87
2022-10-01T07:07:09.179Z,8.92
2022-10-01T07:12:11.995Z,9.00
2022-10-01T07:17:14.780Z,9.13
2022-10-01T07:22:19.413Z,9.23
2022-10-01T07:27:22.260Z,9.25
2022-10-01T07:32:25.018Z,9.25
2022-10-01T07:37:29.159Z,9.29
2022-10-01T07:42:31.924Z,9.36
2022-10-01T07:47:34.695Z,9.44
2022-10-01T07:52:39.169Z,9.47
2022-10-01T07:57:42.192Z,9.53
2022-10-01T08:02:48.174Z,9.63
2022-10-01T08:07:54.063Z,9.70
2022-10-01T08:13:01.356Z,9.76
2022-10-01T08:18:05.753Z,9.78
2022-10-01T08:23:11.821Z,9.86
2022-10-01T08:28:15.608Z,9.97
2022-10-01T08:33:18.542Z,10.04
2022-10-01T08:38:22.706Z,10.07
2022-10-01T08:43:33.126Z,10.02
2022-10-01T08:48:46.203Z,9.98
2022-10-01T08:53:55.610Z,9.95
2022-10-01T08:59:01.127Z,9.93
2022-10-01T09:04:05.902Z,9.90
2022-10-01T09:09:25.542Z,9.85
2022-10-01T09:14:40.611Z,9.86
2022-10-01T09:20:02.669Z,9.89
2022-10-01T09:25:14.764Z,9.93
2022-10-01T09:30:20.595Z,9.88
2022-10-01T09:35:41.830Z,9.77
2022-10-01T09:40:52.929Z,9.67
2022-10-01T09:45:56.189Z,9.59
2022-10-01T09:51:04.970Z,9.55
2022-10-01T09:56:15.820Z,9.52
2022-10-01T10:01:24.659Z,9.42
2022-10-01T10:06:30.676Z,9.35
2022-10-01T10:11:35.707Z,9.28
2022-10-01T10:16:46.772Z,9.23
2022-10-01T10:21:53.975Z,9.26
2022-10-01T10:26:59.810Z,9.29
2022-10-01T10:32:07.705Z,9.27
2022-10-01T10:37:15.839Z,9.27
2022-10-01T10:42:22.298Z,9.27
2022-10-01T10:47:28.399Z,9.36
2022-10-01T10:52:35.272Z,9.45
2022-10-01T10:57:39.817Z,9.55
2022-10-01T11:02:51.820Z,9.57
2022-10-01T11:07:58.746Z,9.55
2022-10-01T11:13:18.720Z,9.55
2022-10-01T11:18:45.254Z,9.49
2022-10-01T11:24:08.350Z,9.44
2022-10-01T11:29:27.493Z,9.46
2022-10-01T11:34:48.717Z,9.51
2022-10-01T11:39:57.472Z,9.61
2022-10-01T11:45:07.256Z,9.64
2022-10-01T11:50:18.691Z,9.76
2022-10-01T11:55:42.349Z,9.87
2022-10-01T12:00:59.759Z,9.98
2022-10-01T12:06:03.531Z,10.05
2022-10-01T12:11:16.128Z,10.11
2022-10-01T12:16:32.584Z,10.18
2022-10-01T12:21:39.131Z,10.22
2022-10-01T12:26:52.751Z,10.23
2022-10-01T12:32:06.239Z,10.22
2022-10-01T12:37:20.062Z,10.11
2022-10-01T12:42:54.787Z,10.05
2022-10-01T12:48:07.952Z,9.97
2022-10-01T12:53:24.846Z,9.89
2022-10-01T12:59:09.158Z,9.84
2022-10-01T13:04:47.659Z,9.88
2022-10-01T13:10:03.669Z,9.93
2022-10-01T13:15:13.788Z,9.92
2022-10-01T13:20:24.838Z,9.97
2022-10-01T13:25:37.739Z,10.02
2022-10-01T13:30:56.728Z,10.07
2022-10-01T13:36:02.176Z,10.10
2022-10-01T13:41:16.632Z,10.16
2022-10-01T13:46:19.775Z,10.36
2022-10-01T13:51:22.808Z,10.51
2022-10-01T13:56:32.859Z,10.57
2022-10-01T14:01:41.205Z,10.47
2022-10-01T14:06:49.824Z,10.43
2022-10-01T14:12:16.401Z,10.47
2022-10-01T14:17:22.912Z,10.45
2022-10-01T14:22:44.411Z,10.43
2022-10-01T14:27:54.167Z,10.46
2022-10-01T14:33:14.039Z,10.50
2022-10-01T14:38:21.247Z,10.51
2022-10-01T14:43:27.303Z,10.51
2022-10-01T14:48:32.340Z,10.53
2022-10-01T14:53:38.698Z,10.63
2022-10-01T14:58:46.122Z,10.73
2022-10-01T15:03:51.057Z,10.79
2022-10-01T15:08:56.206Z,10.85
2022-10-01T15:14:04.002Z,10.76
2022-10-01T15:19:10.411Z,10.82
2022-10-01T15:24:25.048Z,10.78
2022-10-01T15:29:29.413Z,10.77
2022-10-01T15:34:33.296Z,10.84
2022-10-01T15:39:39.351Z,10.87
2022-10-01T15:44:47.228Z,10.86
2022-10-01T15:50:03.408Z,10.82
2022-10-01T15:55:15.242Z,10.82
2022-10-01T16:00:28.507Z,10.86
2022-10-01T16:05:46.942Z,10.83
2022-10-01T16:11:08.619Z,10.88
2022-10-01T16:16:30.924Z,10.97
2022-10-01T16:21:41.755Z,11.01
2022-10-01T16:26:45.844Z,11.03
2022-10-01T16:31:51.511Z,11.02
2022-10-01T16:36:54.376Z,11.01
2022-10-01T16:42:22.295Z,11.02
2022-10-01T16:47:21.340Z,11.02
2022-10-01T16:52:24.134Z,11.06
2022-10-01T16:57:26.986Z,11.04
2022-10-01T17:02:32.618Z,10.98
2022-10-01T17:07:35.574Z,11.00
2022-10-01T17:12:38.779Z,11.02
2022-10-01T17:17:42.888Z,10.96
2022-10-01T17:22:45.793Z,10.96
2022-10-01T17:27:48.917Z,10.95
2022-10-01T17:32:53.519Z,10.96
2022-10-01T17:37:56.365Z,10.95
2022-10-01T17:42:59.163Z,10.97
2022-10-01T17:48:03.794Z,11.02
2022-10-01T17:53:06.538Z,11.07
2022-10-01T17:58:10.182Z,11.10
2022-10-01T18:03:14.452Z,11.12
2022-10-01T18:08:17.548Z,11.16
2022-10-01T18:13:20.493Z,11.21
2022-10-01T18:19:48.633Z,11.21
2022-10-01T18:23:47.817Z,11.28
2022-10-01T18:28:51.598Z,11.35
2022-10-01T18:33:58.512Z,11.44
2022-10-01T18:39:08.620Z,11.50
2022-10-01T18:44:17.995Z,11.54
2022-10-01T18:50:04.018Z,11.58
2022-10-01T18:55:21.568Z,11.63
2022-10-01T19:00:24.555Z,11.66
2022-10-01T19:05:59.438Z,11.68
2022-10-01T19:11:07.863Z,11.69
2022-10-01T19:16:22.387Z,11.71
2022-10-01T19:21:34.915Z,11.72
2022-10-01T19:26:45.516Z,11.74
2022-10-01T19:31:55.504Z,11.77
2022-10-01T19:37:06.172Z,11.78
2022-10-01T19:42:15.824Z,11.79
2022-10-01T19:47:28.773Z,11.79
2022-10-01T19:52:39.553Z,11.81
2022-10-01T19:57:43.631Z,11.84
2022-10-01T20:02:59.799Z,11.87
2022-10-01T20:08:15.867Z,11.82
2022-10-01T20:13:31.575Z,11.81
2022-10-01T20:18:42.522Z,11.79
2022-10-01T20:23:53.002Z,11.83
2022-10-01T20:29:21.710Z,11.88
2022-10-01T20:34:34.091Z,11.90
2022-10-01T20:39:42.696Z,11.91
2022-10-01T20:44:46.309Z,11.89
2022-10-01T20:49:55.170Z,11.91
2022-10-01T20:55:04.703Z,11.95
2022-10-01T21:00:14.814Z,11.99
2022-10-01T21:05:26.106Z,12.00
2022-10-01T21:10:38.752Z,12.04
2022-10-01T21:15:53.632Z,12.03
2022-10-01T21:21:05.747Z,12.03
2022-10-01T21:26:17.325Z,11.98
2022-10-01T21:31:34.289Z,12.02
2022-10-01T21:36:49.158Z,12.11
2022-10-01T21:42:01.904Z,12.19
2022-10-01T21:47:10.069Z,12.26
2022-10-01T21:52:28.615Z,12.33
2022-10-01T21:58:01.340Z,12.34
2022-10-01T22:03:16.287Z,12.41
2022-10-01T22:08:46.337Z,12.50
2022-10-01T22:13:54.158Z,12.55
2022-10-01T22:18:58.330Z,12.63
2022-10-01T22:24:07.258Z,12.62
2022-10-01T22:29:17.256Z,12.59
2022-10-01T22:34:24.248Z,12.58
2022-10-01T22:39:30.114Z,12.60
2022-10-01T22:44:34.622Z,12.59
2022-10-01T22:49:59.260Z,12.59
2022-10-01T22:55:16.090Z,12.65
2022-10-01T23:00:21.595Z,12.66
2022-10-01T23:05:40.870Z,12.64
2022-10-01T23:10:52.229Z,12.62
2022-10-01T23:16:08.902Z,12.64
2022-10-01T23:21:24.836Z,12.64
2022-10-01T23:26:37.264Z,12.62
2022-10-01T23:31:51.580Z,12.65
2022-10-01T23:37:04.088Z,12.65
2022-10-01T23:42:20.213Z,12.61
2022-10-01T23:47:39.646Z,12.63
2022-10-01T23:52:49.048Z,12.63
2022-10-01T23:58:02.356Z,12.62
